Time;durP1;ratioP1;P1;durP2;ratioP2;P2;SDS_P1;SDS_P2;PMS_P1;PMS_P2;Temp;Humidity;BMP_temperature;BMP_pressure;BME280_temperature;BME280_humidity;BME280_pressure;Samples;Min_cycle;Max_cycle;Signal;HPM_P1;HPM_P2
2023/05/12 00:00:01;;;;;;;34.85;24.73;;;16.30;99.90;;;;;;5050261;28;20455;-74
2023/05/12 00:02:27;;;;;;;32.65;23.27;;;16.30;99.90;;;;;;5049053;28;20033;-75
2023/05/12 00:04:52;;;;;;;32.40;24.35;;;16.30;99.90;;;;;;5036987;28;20532;-76
2023/05/12 00:07:18;;;;;;;33.70;23.00;;;16.40;99.90;;;;;;5051374;28;20037;-75
2023/05/12 00:09:44;;;;;;;33.58;23.70;;;16.40;99.90;;;;;;5051265;28;20804;-74
2023/05/12 00:12:10;;;;;;;32.33;24.13;;;16.40;99.90;;;;;;5052462;28;20043;-75
2023/05/12 00:14:36;;;;;;;37.70;25.15;;;16.40;99.90;;;;;;5055152;28;20028;-74
2023/05/12 00:17:03;;;;;;;38.03;25.80;;;16.30;99.90;;;;;;5052062;28;20401;-74
2023/05/12 00:19:29;;;;;;;34.22;25.27;;;16.30;99.90;;;;;;5052763;28;20020;-74
2023/05/12 00:21:55;;;;;;;39.33;26.70;;;16.40;99.90;;;;;;5053605;28;20029;-74
2023/05/12 00:24:21;;;;;;;33.70;24.75;;;16.40;99.90;;;;;;5049033;28;20032;-75
2023/05/12 00:26:47;;;;;;;34.42;24.23;;;16.40;99.90;;;;;;5049867;28;20029;-74
2023/05/12 00:29:13;;;;;;;35.05;24.05;;;16.40;99.90;;;;;;5059286;28;20059;-74
2023/05/12 00:31:38;;;;;;;31.95;21.60;;;16.30;99.90;;;;;;5058359;28;20028;-74
2023/05/12 00:34:04;;;;;;;28.00;20.63;;;16.30;99.90;;;;;;5055665;28;20032;-74
2023/05/12 00:36:30;;;;;;;37.50;25.73;;;16.40;99.90;;;;;;5058624;28;20036;-74
2023/05/12 00:38:57;;;;;;;34.97;22.65;;;16.30;99.90;;;;;;5060985;28;20033;-74
2023/05/12 00:41:23;;;;;;;32.78;21.77;;;16.20;99.90;;;;;;5065127;28;20027;-76
2023/05/12 00:43:49;;;;;;;30.88;21.33;;;16.30;99.90;;;;;;5054223;28;20040;-75
2023/05/12 00:46:16;;;;;;;32.45;22.83;;;16.30;99.90;;;;;;5060517;28;20038;-75
2023/05/12 00:48:43;;;;;;;28.45;22.10;;;16.30;99.90;;;;;;5059969;28;20362;-74
2023/05/12 00:51:09;;;;;;;28.00;20.33;;;16.30;99.90;;;;;;5061602;28;20529;-74
2023/05/12 00:53:36;;;;;;;27.50;21.63;;;16.40;99.90;;;;;;5054589;28;20104;-75
2023/05/12 00:56:02;;;;;;;32.20;20.10;;;16.40;99.90;;;;;;5062671;28;20766;-75
2023/05/12 00:58:28;;;;;;;33.17;22.52;;;16.30;99.90;;;;;;5059320;28;20036;-77
2023/05/12 01:00:54;;;;;;;32.80;20.90;;;16.30;99.90;;;;;;5056606;28;20426;-75
2023/05/12 01:03:20;;;;;;;29.00;21.08;;;16.30;99.90;;;;;;5055980;28;20099;-75
2023/05/12 01:06:16;;;;;;;27.27;20.30;;;16.30;99.90;;;;;;5057954;28;20084;-74
2023/05/12 01:08:43;;;;;;;28.58;18.55;;;16.30;99.90;;;;;;5043207;28;20029;-75
2023/05/12 01:11:08;;;;;;;29.60;21.35;;;16.20;99.90;;;;;;5055024;28;20661;-75
2023/05/12 01:13:35;;;;;;;26.30;19.98;;;16.10;99.90;;;;;;5055851;28;20029;-75
2023/05/12 01:16:02;;;;;;;28.27;19.30;;;16.10;99.90;;;;;;5056372;28;20128;-74
2023/05/12 01:18:28;;;;;;;27.33;19.10;;;16.10;99.90;;;;;;5055530;28;20802;-74
2023/05/12 01:20:56;;;;;;;25.02;19.20;;;16.10;99.90;;;;;;5055132;28;20032;-73
2023/05/12 01:23:26;;;;;;;21.38;17.55;;;16.10;99.90;;;;;;5061056;28;20488;-74
2023/05/12 01:25:54;;;;;;;24.90;18.80;;;16.10;99.90;;;;;;5058319;28;20029;-74
2023/05/12 01:28:20;;;;;;;28.00;19.85;;;16.10;99.90;;;;;;5053776;28;20036;-74
2023/05/12 01:30:47;;;;;;;29.25;20.35;;;16.10;99.90;;;;;;5035258;28;20440;-75
2023/05/12 01:33:13;;;;;;;28.67;19.10;;;16.00;99.90;;;;;;5059293;28;20024;-75
2023/05/12 01:35:39;;;;;;;22.45;16.48;;;16.00;99.90;;;;;;5061832;28;20070;-74
2023/05/12 01:38:05;;;;;;;21.58;15.27;;;16.00;99.90;;;;;;5061610;28;20079;-75
2023/05/12 01:40:30;;;;;;;21.33;15.63;;;15.90;99.90;;;;;;5061006;28;20024;-74
2023/05/12 01:42:56;;;;;;;19.63;14.23;;;15.90;99.90;;;;;;5057689;28;20522;-74
2023/05/12 01:45:22;;;;;;;17.05;12.82;;;15.80;99.90;;;;;;5056000;28;20013;-75
2023/05/12 01:47:47;;;;;;;16.15;12.93;;;15.80;99.90;;;;;;5059586;28;20033;-77
2023/05/12 01:50:13;;;;;;;17.08;13.30;;;15.80;99.90;;;;;;5061381;28;20488;-75
2023/05/12 01:52:39;;;;;;;16.38;11.88;;;15.80;99.90;;;;;;5063817;28;20488;-74
2023/05/12 01:55:05;;;;;;;16.52;12.35;;;15.80;99.90;;;;;;5060190;28;20454;-74
2023/05/12 01:57:31;;;;;;;19.13;13.57;;;15.70;99.90;;;;;;5057232;28;20029;-74
2023/05/12 01:59:57;;;;;;;20.00;12.75;;;15.70;99.90;;;;;;5058285;28;20032;-75
2023/05/12 02:02:23;;;;;;;17.42;12.20;;;15.70;99.90;;;;;;5059410;28;20029;-73
2023/05/12 02:04:48;;;;;;;17.20;11.80;;;15.70;99.90;;;;;;5058992;28;20106;-73
2023/05/12 02:07:14;;;;;;;18.17;12.60;;;15.60;99.90;;;;;;5062860;28;20486;-73
2023/05/12 02:09:40;;;;;;;17.92;12.65;;;15.60;99.90;;;;;;5060092;28;20013;-74
2023/05/12 02:12:06;;;;;;;18.10;12.73;;;15.60;99.90;;;;;;5060032;28;20033;-74
2023/05/12 02:14:32;;;;;;;16.95;11.80;;;15.60;99.90;;;;;;5058996;28;20477;-75
2023/05/12 02:16:58;;;;;;;17.92;12.73;;;15.50;99.90;;;;;;5065978;28;20060;-75
2023/05/12 02:19:24;;;;;;;17.10;13.02;;;15.50;99.90;;;;;;5059790;28;20472;-75
2023/05/12 02:21:50;;;;;;;16.92;12.95;;;15.60;99.90;;;;;;5057146;28;20029;-74
2023/05/12 02:24:15;;;;;;;19.10;15.20;;;15.60;99.90;;;;;;5059489;28;20075;-74
2023/05/12 02:26:41;;;;;;;22.10;15.77;;;15.60;99.90;;;;;;5064598;28;20051;-75
2023/05/12 02:29:07;;;;;;;19.33;14.35;;;15.60;99.90;;;;;;5061825;28;20021;-74
2023/05/12 02:31:33;;;;;;;19.00;15.10;;;15.60;99.90;;;;;;5068654;28;20448;-74
2023/05/12 02:34:00;;;;;;;16.45;13.65;;;15.60;99.90;;;;;;5064039;28;20029;-74
2023/05/12 02:36:25;;;;;;;24.15;16.30;;;15.50;99.90;;;;;;5061979;28;20040;-74
2023/05/12 02:38:51;;;;;;;20.45;14.60;;;15.50;99.90;;;;;;5063914;28;20515;-74
2023/05/12 02:41:17;;;;;;;19.48;14.90;;;15.50;99.90;;;;;;5067379;28;20029;-72
2023/05/12 02:43:42;;;;;;;24.48;15.88;;;15.50;99.90;;;;;;5063379;28;20519;-74
2023/05/12 02:46:08;;;;;;;16.38;13.23;;;15.60;99.90;;;;;;5039171;28;20465;-74
2023/05/12 02:48:34;;;;;;;17.35;13.20;;;15.60;99.90;;;;;;5059200;28;20095;-74
2023/05/12 02:51:00;;;;;;;18.23;13.63;;;15.50;99.90;;;;;;5061223;28;20112;-73
2023/05/12 02:53:26;;;;;;;20.15;13.70;;;15.50;99.90;;;;;;5058236;28;20029;-73
2023/05/12 02:55:52;;;;;;;16.15;12.70;;;15.40;99.90;;;;;;5058902;28;20024;-74
2023/05/12 02:58:18;;;;;;;16.95;13.63;;;15.50;99.90;;;;;;5056500;28;20058;-75
2023/05/12 03:00:44;;;;;;;18.75;14.10;;;15.50;99.90;;;;;;5060314;28;20025;-74
2023/05/12 03:03:09;;;;;;;15.18;11.65;;;15.40;99.90;;;;;;5063530;28;20029;-75
2023/05/12 03:05:35;;;;;;;20.73;12.73;;;15.50;99.90;;;;;;5041647;28;20028;-74
2023/05/12 03:08:01;;;;;;;14.45;11.73;;;15.50;99.90;;;;;;5057482;28;20032;-74
2023/05/12 03:10:26;;;;;;;13.57;9.88;;;15.50;99.90;;;;;;5057224;28;20377;-74
2023/05/12 03:12:52;;;;;;;11.13;9.38;;;15.40;99.90;;;;;;5043919;28;20129;-74
2023/05/12 03:15:18;;;;;;;14.05;10.48;;;15.30;99.90;;;;;;5058804;28;20021;-74
2023/05/12 03:17:44;;;;;;;10.48;8.82;;;15.30;99.90;;;;;;5061183;28;20040;-74
2023/05/12 03:20:11;;;;;;;11.93;8.77;;;15.30;99.90;;;;;;5060503;28;20025;-74
2023/05/12 03:22:37;;;;;;;10.82;9.55;;;15.30;99.90;;;;;;5060898;28;20028;-73
2023/05/12 03:25:04;;;;;;;13.85;9.68;;;15.30;99.90;;;;;;5058957;28;20024;-74
2023/05/12 03:27:31;;;;;;;14.25;9.10;;;15.40;99.90;;;;;;5059694;28;20500;-74
2023/05/12 03:29:59;;;;;;;12.57;9.15;;;15.30;99.90;;;;;;5060328;28;20021;-73
2023/05/12 03:32:27;;;;;;;18.20;8.55;;;15.20;99.90;;;;;;5057743;28;20028;-74
2023/05/12 03:34:53;;;;;;;8.75;7.55;;;15.30;99.90;;;;;;5056135;28;20028;-73
2023/05/12 03:37:19;;;;;;;10.23;7.43;;;15.20;99.90;;;;;;5051569;28;20032;-73
2023/05/12 03:39:44;;;;;;;8.73;7.32;;;15.30;99.90;;;;;;5057452;28;20029;-72
2023/05/12 03:42:10;;;;;;;8.43;7.45;;;15.20;99.90;;;;;;5059869;28;20386;-74
2023/05/12 03:44:36;;;;;;;10.15;7.38;;;15.10;99.90;;;;;;5057169;28;20055;-73
2023/05/12 03:47:02;;;;;;;8.13;6.20;;;15.20;99.90;;;;;;5059501;28;20060;-73
2023/05/12 03:49:28;;;;;;;7.45;6.20;;;15.20;99.90;;;;;;5066246;28;20032;-74
2023/05/12 03:51:53;;;;;;;7.40;6.20;;;15.10;99.90;;;;;;5057193;28;20029;-74
2023/05/12 03:54:19;;;;;;;7.32;5.68;;;15.10;99.90;;;;;;5057978;28;20021;-74
2023/05/12 03:56:45;;;;;;;6.97;6.28;;;15.20;99.90;;;;;;5056504;28;20397;-74
2023/05/12 03:59:13;;;;;;;5.90;5.38;;;15.20;99.90;;;;;;5063526;28;20078;-74
2023/05/12 04:01:39;;;;;;;7.05;5.45;;;15.20;99.90;;;;;;5060918;28;20096;-74
2023/05/12 04:04:04;;;;;;;5.57;5.03;;;15.20;99.90;;;;;;5057990;28;20500;-74
2023/05/12 04:06:30;;;;;;;7.00;5.25;;;15.20;99.90;;;;;;5047599;28;20456;-74
2023/05/12 04:08:56;;;;;;;5.43;4.93;;;15.30;99.90;;;;;;5060733;28;20043;-74
2023/05/12 04:11:22;;;;;;;6.45;4.60;;;15.30;99.90;;;;;;5066310;28;20436;-73
2023/05/12 04:13:48;;;;;;;5.40;4.78;;;15.20;99.90;;;;;;5056767;28;20130;-73
2023/05/12 04:16:13;;;;;;;5.35;4.70;;;15.10;99.90;;;;;;5064462;28;20472;-74
2023/05/12 04:18:39;;;;;;;7.95;5.15;;;15.00;99.90;;;;;;5041728;28;20020;-73
2023/05/12 04:21:05;;;;;;;7.25;4.47;;;15.10;99.90;;;;;;5061505;28;20120;-74
2023/05/12 04:23:30;;;;;;;7.63;5.00;;;15.00;99.90;;;;;;5057730;28;20683;-73
2023/05/12 04:25:56;;;;;;;9.52;5.50;;;15.00;99.90;;;;;;5060602;28;20077;-75
2023/05/12 04:28:22;;;;;;;9.90;5.75;;;14.90;99.90;;;;;;5054396;28;20366;-73
2023/05/12 04:30:47;;;;;;;11.65;6.20;;;14.80;99.90;;;;;;5061413;28;20069;-73
2023/05/12 04:33:13;;;;;;;11.98;7.05;;;14.80;99.90;;;;;;5056200;28;20137;-74
2023/05/12 04:35:39;;;;;;;13.05;7.63;;;14.80;99.90;;;;;;5055584;28;20032;-74
2023/05/12 04:38:05;;;;;;;16.13;8.18;;;14.90;99.90;;;;;;5062574;28;20059;-73
2023/05/12 04:40:31;;;;;;;14.07;8.98;;;14.80;99.90;;;;;;5065055;28;20465;-73
2023/05/12 04:42:56;;;;;;;19.00;10.40;;;14.80;99.90;;;;;;5062177;28;20473;-73
2023/05/12 04:45:22;;;;;;;20.27;10.82;;;14.90;99.90;;;;;;5057913;28;20424;-74
2023/05/12 04:47:48;;;;;;;18.92;10.63;;;14.90;99.90;;;;;;5055904;28;20033;-74
2023/05/12 04:50:14;;;;;;;19.33;10.68;;;14.80;99.90;;;;;;5060996;28;20083;-73
2023/05/12 04:52:39;;;;;;;20.20;11.38;;;14.70;99.90;;;;;;5054946;28;20032;-73
2023/05/12 04:55:06;;;;;;;19.17;10.32;;;14.70;99.90;;;;;;5060608;28;20485;-73
2023/05/12 04:57:32;;;;;;;18.40;11.40;;;14.70;99.90;;;;;;5057032;28;20044;-73
2023/05/12 04:59:58;;;;;;;19.00;11.50;;;14.60;99.90;;;;;;5054132;28;20025;-73
2023/05/12 05:02:27;;;;;;;17.98;10.50;;;14.70;99.90;;;;;;5057087;28;20029;-73
2023/05/12 05:04:53;;;;;;;18.63;11.32;;;14.80;99.90;;;;;;5044766;28;20426;-74
2023/05/12 05:07:19;;;;;;;20.38;11.38;;;14.80;99.90;;;;;;5053592;28;20033;-74
2023/05/12 05:09:45;;;;;;;19.33;11.25;;;14.80;99.90;;;;;;5062984;28;20103;-71
2023/05/12 05:12:10;;;;;;;25.05;12.30;;;14.70;99.90;;;;;;5057814;28;20400;-73
2023/05/12 05:14:36;;;;;;;18.67;11.63;;;14.70;99.90;;;;;;5061146;28;20025;-73
2023/05/12 05:17:01;;;;;;;19.75;10.88;;;14.70;99.90;;;;;;5046228;28;20385;-71
2023/05/12 05:19:28;;;;;;;20.08;11.75;;;14.60;99.90;;;;;;5062162;28;20029;-71
2023/05/12 05:21:54;;;;;;;16.40;10.57;;;14.70;99.90;;;;;;5059195;28;20035;-74
2023/05/12 05:24:20;;;;;;;18.13;11.63;;;14.80;99.90;;;;;;5058969;28;20031;-72
2023/05/12 05:26:45;;;;;;;17.63;10.93;;;14.80;99.90;;;;;;5063966;28;20530;-73
2023/05/12 05:29:11;;;;;;;19.17;12.40;;;14.80;99.90;;;;;;5065129;28;20029;-74
2023/05/12 05:31:37;;;;;;;25.27;12.45;;;14.70;99.90;;;;;;5061775;28;20496;-74
2023/05/12 05:34:03;;;;;;;22.13;12.93;;;14.80;99.90;;;;;;5066833;28;20060;-74
2023/05/12 05:36:29;;;;;;;29.08;15.77;;;14.90;99.90;;;;;;5064970;28;20024;-74
2023/05/12 05:38:55;;;;;;;33.53;17.42;;;14.90;99.90;;;;;;5066362;28;20035;-74
2023/05/12 05:41:21;;;;;;;29.88;16.38;;;15.00;99.90;;;;;;5066781;28;20104;-73
2023/05/12 05:43:47;;;;;;;40.85;18.63;;;14.90;99.90;;;;;;5045207;28;20481;-73
2023/05/12 05:46:13;;;;;;;40.33;20.60;;;14.80;99.90;;;;;;5059499;28;20028;-72
2023/05/12 05:48:39;;;;;;;40.28;20.13;;;14.90;99.90;;;;;;5055662;28;20504;-74
2023/05/12 05:51:05;;;;;;;46.40;23.73;;;14.90;99.90;;;;;;5062049;28;20051;-73
2023/05/12 05:53:31;;;;;;;46.88;24.00;;;14.90;99.90;;;;;;5059933;28;20482;-73
2023/05/12 05:55:57;;;;;;;48.10;24.58;;;15.00;99.90;;;;;;5059175;28;20024;-73
2023/05/12 05:58:23;;;;;;;44.45;23.70;;;15.00;99.90;;;;;;5059142;28;20044;-73
2023/05/12 06:00:49;;;;;;;55.22;28.67;;;14.90;99.90;;;;;;5060453;28;20397;-73
2023/05/12 06:03:15;;;;;;;57.60;30.48;;;14.90;99.90;;;;;;5061858;28;20171;-73
2023/05/12 06:05:42;;;;;;;63.83;32.58;;;15.00;99.90;;;;;;5054929;28;20100;-73
2023/05/12 06:08:09;;;;;;;67.22;36.22;;;15.10;99.90;;;;;;5057820;28;20017;-72
2023/05/12 06:10:36;;;;;;;62.58;33.05;;;15.10;99.90;;;;;;5046778;28;20071;-73
2023/05/12 06:13:01;;;;;;;75.68;35.53;;;15.10;99.90;;;;;;5061302;28;20558;-74
2023/05/12 06:15:27;;;;;;;70.55;36.38;;;15.10;99.90;;;;;;5048329;28;20021;-74
2023/05/12 06:17:53;;;;;;;81.57;39.33;;;15.10;99.90;;;;;;5056773;28;20115;-72
2023/05/12 06:20:19;;;;;;;70.68;36.53;;;15.10;99.90;;;;;;5046701;28;20020;-75
2023/05/12 06:22:45;;;;;;;69.97;36.25;;;15.10;99.90;;;;;;5060308;28;20036;-72
2023/05/12 06:25:11;;;;;;;92.68;38.10;;;15.10;99.90;;;;;;5059505;28;20100;-74
2023/05/12 06:27:37;;;;;;;61.47;32.05;;;15.10;99.90;;;;;;5058679;28;20029;-74
2023/05/12 06:30:03;;;;;;;62.45;30.27;;;15.20;99.90;;;;;;5064676;28;20028;-74
2023/05/12 06:32:28;;;;;;;49.72;26.63;;;15.20;99.90;;;;;;5056635;28;20025;-74
2023/05/12 06:34:54;;;;;;;55.92;27.15;;;15.20;99.90;;;;;;5061074;28;20074;-74
2023/05/12 06:37:20;;;;;;;44.28;24.85;;;15.20;99.90;;;;;;5042423;28;20025;-76
2023/05/12 06:39:46;;;;;;;48.60;24.20;;;15.20;99.90;;;;;;5064575;28;20504;-74
2023/05/12 06:42:11;;;;;;;45.22;23.83;;;15.30;99.90;;;;;;5055907;28;20104;-75
2023/05/12 06:44:37;;;;;;;35.13;20.92;;;15.20;99.90;;;;;;5047863;28;20047;-74
2023/05/12 06:47:03;;;;;;;43.92;22.05;;;15.30;99.90;;;;;;5058280;28;20029;-75
2023/05/12 06:49:30;;;;;;;44.03;23.08;;;15.30;99.90;;;;;;5055112;28;20500;-74
2023/05/12 06:51:55;;;;;;;44.05;22.33;;;15.30;99.90;;;;;;5060650;28;20101;-74
2023/05/12 06:54:21;;;;;;;37.17;22.23;;;15.40;99.90;;;;;;5059785;28;20481;-74
2023/05/12 06:56:47;;;;;;;36.92;22.38;;;15.40;99.90;;;;;;5065403;28;20043;-75
2023/05/12 06:59:12;;;;;;;35.45;20.88;;;15.40;99.90;;;;;;5044813;28;20455;-74
2023/05/12 07:01:39;;;;;;;36.35;21.80;;;15.40;99.90;;;;;;5055445;28;20377;-81
2023/05/12 07:04:06;;;;;;;34.13;21.52;;;15.50;99.90;;;;;;5062477;28;20508;-74
2023/05/12 07:06:33;;;;;;;25.70;16.88;;;15.60;99.90;;;;;;5062045;28;20100;-74
2023/05/12 07:08:59;;;;;;;28.88;17.60;;;15.60;99.90;;;;;;5043154;28;20040;-75
2023/05/12 07:11:24;;;;;;;26.13;18.60;;;15.70;99.90;;;;;;5060114;28;20029;-74
2023/05/12 07:13:51;;;;;;;29.20;17.95;;;15.60;99.90;;;;;;5058479;28;20039;-74
2023/05/12 07:16:18;;;;;;;29.00;17.83;;;15.70;99.90;;;;;;5060974;28;20029;-74
2023/05/12 07:18:44;;;;;;;32.90;18.75;;;15.80;99.90;;;;;;5061928;28;20037;-75
2023/05/12 07:21:10;;;;;;;26.85;17.98;;;15.80;99.90;;;;;;5066599;28;20024;-76
2023/05/12 07:23:36;;;;;;;29.17;19.00;;;15.80;99.90;;;;;;5059209;28;20032;-75
2023/05/12 07:26:04;;;;;;;27.13;18.63;;;15.70;99.90;;;;;;5057686;28;20679;-75
2023/05/12 07:28:37;;;;;;;24.83;16.60;;;15.70;99.90;;;;;;5052284;28;20084;-75
2023/05/12 07:31:04;;;;;;;31.92;19.60;;;15.70;99.90;;;;;;5052542;28;20401;-75
2023/05/12 07:33:30;;;;;;;27.15;17.90;;;15.80;99.90;;;;;;5059044;28;20042;-72
2023/05/12 07:35:56;;;;;;;29.02;19.35;;;15.80;99.90;;;;;;5055909;28;20025;-76
2023/05/12 07:38:22;;;;;;;27.77;18.75;;;15.80;99.90;;;;;;5065030;28;20389;-76
2023/05/12 07:40:48;;;;;;;30.08;19.50;;;15.90;99.90;;;;;;5061053;28;20087;-77
2023/05/12 07:43:16;;;;;;;27.27;18.10;;;15.90;99.90;;;;;;5061036;28;20469;-76
2023/05/12 07:45:42;;;;;;;35.40;20.17;;;15.90;99.90;;;;;;5057655;28;20021;-74
2023/05/12 07:48:10;;;;;;;31.38;19.48;;;15.80;99.90;;;;;;5062341;28;20025;-76
2023/05/12 07:50:36;;;;;;;27.35;19.65;;;16.00;99.90;;;;;;5061421;28;20070;-75
2023/05/12 07:53:02;;;;;;;21.30;16.65;;;16.10;99.90;;;;;;5063558;28;20037;-75
2023/05/12 07:55:27;;;;;;;21.48;16.10;;;16.00;99.90;;;;;;5057680;28;20108;-74
2023/05/12 07:57:53;;;;;;;20.55;16.13;;;16.10;99.90;;;;;;5055501;28;20032;-74
2023/05/12 08:00:19;;;;;;;23.20;15.48;;;16.00;99.90;;;;;;5059385;28;20420;-74
2023/05/12 08:02:45;;;;;;;17.45;13.65;;;16.00;99.90;;;;;;5054096;28;20092;-75
2023/05/12 08:05:12;;;;;;;15.95;11.38;;;16.00;99.90;;;;;;5057135;28;20104;-76
2023/05/12 08:07:38;;;;;;;14.18;11.27;;;16.00;99.90;;;;;;5058949;28;20442;-76
2023/05/12 08:10:05;;;;;;;18.33;11.98;;;15.90;99.90;;;;;;5059594;28;20017;-77
2023/05/12 08:12:31;;;;;;;14.63;12.05;;;15.90;99.90;;;;;;5058577;28;20506;-77
2023/05/12 08:14:57;;;;;;;11.80;10.60;;;16.00;99.90;;;;;;5062352;28;20032;-75
2023/05/12 08:17:23;;;;;;;14.13;9.57;;;16.00;99.90;;;;;;5053804;28;20029;-75
2023/05/12 08:19:48;;;;;;;11.43;8.45;;;16.10;99.90;;;;;;5064538;28;20061;-75
2023/05/12 08:22:16;;;;;;;9.50;7.70;;;16.20;99.90;;;;;;5059880;28;20049;-76
2023/05/12 08:24:41;;;;;;;10.52;7.88;;;16.30;99.90;;;;;;5056469;28;20044;-75
2023/05/12 08:27:07;;;;;;;9.23;6.50;;;16.40;99.90;;;;;;5059292;28;20495;-74
2023/05/12 08:29:33;;;;;;;12.85;7.18;;;16.30;99.90;;;;;;5060254;28;20017;-75
2023/05/12 08:31:59;;;;;;;8.55;6.65;;;16.30;99.90;;;;;;5059832;28;20029;-74
2023/05/12 08:34:25;;;;;;;7.90;6.28;;;16.30;99.90;;;;;;5059918;28;20091;-75
2023/05/12 08:36:54;;;;;;;8.18;7.03;;;16.20;99.90;;;;;;5065312;28;20041;-76
2023/05/12 08:39:20;;;;;;;7.45;6.70;;;16.30;99.90;;;;;;5064129;28;20500;-74
2023/05/12 08:41:49;;;;;;;7.65;6.75;;;16.30;99.90;;;;;;5043430;28;20083;-76
2023/05/12 08:44:17;;;;;;;7.72;6.55;;;16.50;99.90;;;;;;5061398;28;20039;-78
2023/05/12 08:46:43;;;;;;;6.70;5.70;;;16.70;99.90;;;;;;5053269;28;20116;-78
2023/05/12 08:49:14;;;;;;;7.47;6.57;;;16.70;99.90;;;;;;5038546;28;20075;-78
2023/05/12 08:51:43;;;;;;;6.00;5.40;;;16.80;99.90;;;;;;5063831;28;20423;-78
2023/05/12 08:54:11;;;;;;;7.43;6.18;;;16.80;99.90;;;;;;5041668;28;20028;-79
2023/05/12 08:56:41;;;;;;;6.57;6.05;;;16.90;99.90;;;;;;5045981;28;20116;-78
2023/05/12 08:59:08;;;;;;;6.50;5.10;;;17.00;99.90;;;;;;5056744;28;20402;-76
2023/05/12 09:01:35;;;;;;;10.52;6.00;;;16.80;99.90;;;;;;5030137;28;20032;-76
2023/05/12 09:04:04;;;;;;;7.65;5.93;;;16.80;99.90;;;;;;5054807;28;20384;-77
2023/05/12 09:06:31;;;;;;;9.25;5.30;;;16.90;99.90;;;;;;5050560;28;20108;-76
2023/05/12 09:08:57;;;;;;;7.18;6.47;;;16.90;99.90;;;;;;5033580;28;20128;-76
2023/05/12 09:11:23;;;;;;;9.40;7.35;;;17.00;99.90;;;;;;5056794;28;20103;-76
2023/05/12 09:14:02;;;;;;;11.18;6.68;;;17.00;99.90;;;;;;5051833;28;20477;-76
2023/05/12 09:16:33;;;;;;;7.30;6.60;;;17.00;99.90;;;;;;5052278;28;20068;-77
2023/05/12 09:19:01;;;;;;;10.55;6.65;;;17.00;99.90;;;;;;5050267;28;20036;-78
2023/05/12 09:21:28;;;;;;;7.63;6.55;;;17.00;99.90;;;;;;5052009;28;20032;-77
2023/05/12 09:24:05;;;;;;;8.20;6.15;;;17.10;99.90;;;;;;5051335;28;20017;-77
2023/05/12 09:26:52;;;;;;;11.50;5.95;;;17.10;99.90;;;;;;5049672;28;20033;-78
2023/05/12 09:29:19;;;;;;;7.20;6.50;;;17.20;99.90;;;;;;5047929;28;20029;-79
2023/05/12 09:31:57;;;;;;;7.88;6.32;;;17.10;99.90;;;;;;5053057;28;20493;-78
2023/05/12 09:34:42;;;;;;;5.95;5.28;;;17.20;99.90;;;;;;5050497;28;20107;-77
2023/05/12 09:37:08;;;;;;;7.32;6.53;;;17.40;99.90;;;;;;5050631;28;20039;-79
2023/05/12 09:39:35;;;;;;;14.70;5.32;;;17.60;99.90;;;;;;5051804;28;20075;-76
2023/05/12 09:42:01;;;;;;;4.93;4.53;;;17.60;99.90;;;;;;5051738;28;20108;-79
2023/05/12 09:44:30;;;;;;;5.90;4.63;;;17.60;99.90;;;;;;5050183;28;20029;-78
2023/05/12 09:47:05;;;;;;;5.05;4.28;;;17.60;99.90;;;;;;5053668;28;20028;-78
2023/05/12 09:49:31;;;;;;;3.85;3.50;;;17.60;99.90;;;;;;5054414;28;20457;-79
2023/05/12 09:51:57;;;;;;;8.85;3.45;;;17.60;99.90;;;;;;5049658;28;20075;-79
2023/05/12 09:54:30;;;;;;;5.43;3.58;;;17.60;99.90;;;;;;5032833;28;20037;-81
2023/05/12 09:57:01;;;;;;;3.92;3.53;;;17.70;99.90;;;;;;5058032;28;20853;-79
2023/05/12 09:59:31;;;;;;;7.45;3.55;;;17.80;99.90;;;;;;5051728;28;20036;-79
2023/05/12 10:02:00;;;;;;;6.97;3.92;;;17.80;99.90;;;;;;5036223;28;20417;-77
2023/05/12 10:04:28;;;;;;;4.13;3.65;;;17.80;99.90;;;;;;5056304;28;20033;-76
2023/05/12 10:06:56;;;;;;;5.30;4.03;;;18.10;99.90;;;;;;5051688;28;20027;-77
2023/05/12 10:09:27;;;;;;;4.10;3.70;;;18.30;99.90;;;;;;5041307;28;21505;-77
2023/05/12 10:11:55;;;;;;;7.03;3.58;;;18.40;99.90;;;;;;5057919;28;20025;-77
2023/05/12 10:14:21;;;;;;;6.63;3.78;;;18.70;99.90;;;;;;5053610;28;20056;-78
2023/05/12 10:16:48;;;;;;;4.05;3.53;;;19.10;99.90;;;;;;5050358;28;20052;-78
2023/05/12 10:19:15;;;;;;;5.13;3.83;;;19.10;99.90;;;;;;5056577;28;20052;-78
2023/05/12 10:21:45;;;;;;;4.47;3.47;;;19.10;99.90;;;;;;5056065;28;20016;-78
2023/05/12 10:24:15;;;;;;;4.45;3.30;;;18.90;99.90;;;;;;5052041;28;20071;-77
2023/05/12 10:26:43;;;;;;;3.97;3.60;;;18.70;99.90;;;;;;5036492;28;20029;-77
2023/05/12 10:29:09;;;;;;;4.07;3.67;;;18.50;99.90;;;;;;5056882;28;20028;-81
2023/05/12 10:31:39;;;;;;;4.57;4.18;;;18.50;99.90;;;;;;5051216;28;20033;-78
2023/05/12 10:34:05;;;;;;;5.65;3.38;;;18.40;99.90;;;;;;5057969;28;20427;-78
2023/05/12 10:36:45;;;;;;;4.78;3.47;;;18.30;99.90;;;;;;5052718;28;20496;-78
2023/05/12 10:39:14;;;;;;;5.97;3.42;;;18.20;99.90;;;;;;5057529;28;20397;-77
2023/05/12 10:41:40;;;;;;;6.10;3.60;;;18.20;99.90;;;;;;5054954;28;20027;-78
2023/05/12 10:44:06;;;;;;;3.63;3.28;;;18.40;99.90;;;;;;5054061;28;20136;-78
2023/05/12 10:46:31;;;;;;;3.45;3.25;;;18.50;99.90;;;;;;5051557;28;20108;-79
2023/05/12 10:49:06;;;;;;;2.95;2.70;;;18.70;99.90;;;;;;5053968;28;20440;-79
2023/05/12 10:51:44;;;;;;;3.63;3.33;;;18.70;99.90;;;;;;5051859;28;20032;-78
2023/05/12 10:54:18;;;;;;;6.10;3.13;;;18.60;99.90;;;;;;5038102;28;20070;-79
2023/05/12 10:56:44;;;;;;;6.85;3.08;;;18.60;99.90;;;;;;5052524;28;20032;-78
2023/05/12 10:59:16;;;;;;;5.43;2.90;;;18.60;99.90;;;;;;5052929;28;20029;-78
2023/05/12 11:02:11;;;;;;;5.72;2.88;;;18.80;99.90;;;;;;5060993;28;20036;-78
2023/05/12 11:04:49;;;;;;;5.57;2.97;;;18.90;99.90;;;;;;5042193;28;20035;-78
2023/05/12 11:07:18;;;;;;;11.60;3.00;;;19.30;99.90;;;;;;5050998;28;20029;-79
2023/05/12 11:09:46;;;;;;;3.10;2.53;;;19.60;99.90;;;;;;5038938;28;20032;-79
2023/05/12 11:12:13;;;;;;;3.20;2.90;;;19.40;99.90;;;;;;5055109;28;20032;-78
2023/05/12 11:14:40;;;;;;;2.63;2.42;;;19.50;99.90;;;;;;5051940;28;20113;-78
2023/05/12 11:17:08;;;;;;;5.35;2.50;;;19.50;99.90;;;;;;5034398;28;20028;-78
2023/05/12 11:19:34;;;;;;;5.47;2.80;;;19.80;99.90;;;;;;5054585;28;20039;-78
2023/05/12 11:22:14;;;;;;;3.22;2.45;;;19.60;99.90;;;;;;5036170;28;20496;-78
2023/05/12 11:24:41;;;;;;;6.35;2.83;;;19.60;99.90;;;;;;5050217;28;20029;-79
2023/05/12 11:27:12;;;;;;;2.00;1.90;;;19.60;99.90;;;;;;5056649;28;20008;-78
2023/05/12 11:29:40;;;;;;;2.95;1.90;;;19.80;99.90;;;;;;5045304;28;20021;-78
2023/05/12 11:32:07;;;;;;;2.75;1.60;;;20.00;99.90;;;;;;5051440;28;20021;-78
2023/05/12 11:34:33;;;;;;;5.95;2.45;;;20.20;99.90;;;;;;5055360;28;20083;-78
2023/05/12 11:36:59;;;;;;;4.95;2.38;;;20.40;99.90;;;;;;5054904;28;20033;-75
2023/05/12 11:39:26;;;;;;;2.20;2.00;;;20.40;99.90;;;;;;5059349;28;20031;-79
2023/05/12 11:41:53;;;;;;;2.05;1.95;;;20.40;99.90;;;;;;5053174;28;20489;-78
2023/05/12 11:44:25;;;;;;;3.55;2.42;;;20.60;99.90;;;;;;5048192;28;20035;-79
2023/05/12 11:47:00;;;;;;;4.03;2.37;;;20.60;99.90;;;;;;5026420;28;20020;-77
2023/05/12 11:49:28;;;;;;;3.83;2.33;;;20.40;99.90;;;;;;5054379;28;20052;-78
2023/05/12 11:51:59;;;;;;;1.98;1.80;;;20.50;99.90;;;;;;5056127;28;20021;-78
2023/05/12 11:54:27;;;;;;;4.43;2.30;;;20.60;99.90;;;;;;5036414;28;20017;-77
2023/05/12 11:56:54;;;;;;;3.83;2.03;;;20.40;99.90;;;;;;5055542;28;20083;-77
2023/05/12 11:59:31;;;;;;;3.13;2.13;;;20.80;99.90;;;;;;5055691;28;20135;-77
2023/05/12 12:01:58;;;;;;;4.75;2.13;;;21.00;99.90;;;;;;5050782;28;20024;-81
2023/05/12 12:04:36;;;;;;;9.07;2.30;;;21.00;99.90;;;;;;5039263;28;20588;-78
2023/05/12 12:07:06;;;;;;;6.18;2.55;;;21.10;99.90;;;;;;5050070;28;20369;-75
2023/05/12 12:09:36;;;;;;;3.28;2.53;;;21.00;99.90;;;;;;5051718;28;20401;-78
2023/05/12 12:12:04;;;;;;;5.22;2.17;;;20.70;99.90;;;;;;5053130;28;20025;-77
2023/05/12 12:14:31;;;;;;;4.80;2.20;;;20.80;99.90;;;;;;5054375;28;20025;-78
2023/05/12 12:16:58;;;;;;;7.03;2.15;;;21.00;99.90;;;;;;5037273;28;20029;-76
2023/05/12 12:19:24;;;;;;;2.05;1.90;;;21.20;99.90;;;;;;5051050;28;20036;-76
2023/05/12 12:21:50;;;;;;;5.00;2.30;;;21.30;99.90;;;;;;5055675;28;20472;-76
2023/05/12 12:24:16;;;;;;;4.18;2.20;;;21.30;99.90;;;;;;5039914;28;20027;-76
2023/05/12 12:26:42;;;;;;;4.20;2.45;;;21.40;99.90;;;;;;5054446;28;20043;-77
2023/05/12 12:29:08;;;;;;;5.32;2.78;;;21.50;99.90;;;;;;5052642;28;20033;-77
2023/05/12 12:31:35;;;;;;;5.80;2.75;;;21.50;99.90;;;;;;5052901;28;20040;-76
2023/05/12 12:34:02;;;;;;;6.03;2.72;;;21.50;99.90;;;;;;5053924;28;20021;-76